createdAt,value
2022-12-11T00:00:53.696Z,97731.31
2022-12-11T00:03:21.209Z,97722.78
2022-12-11T00:05:48.733Z,97723.63
2022-12-11T00:08:16.299Z,97727.47
2022-12-11T00:10:50.100Z,97732.78
2022-12-11T00:13:17.602Z,97736.16
2022-12-11T00:15:45.170Z,97733.38
2022-12-11T00:18:14.177Z,97740.59
2022-12-11T00:20:41.782Z,97741.44
2022-12-11T00:23:10.844Z,97743.34
2022-12-11T00:25:45.548Z,97743.63
2022-12-11T00:28:15.128Z,97754.19
2022-12-11T00:30:43.194Z,97758.03
2022-12-11T00:33:12.272Z,97766.13
2022-12-11T00:35:41.672Z,97752.50
2022-12-11T00:38:09.599Z,97764.41
2022-12-11T00:40:37.435Z,97756.97
2022-12-11T00:43:05.048Z,97770.56
2022-12-11T00:45:37.019Z,97750.97
2022-12-11T00:48:04.994Z,97755.06
2022-12-11T00:50:32.961Z,97760.59
2022-12-11T00:53:00.648Z,97768.63
2022-12-11T00:55:29.292Z,97770.69
2022-12-11T00:57:58.381Z,97778.16
2022-12-11T01:00:25.810Z,97787.28
2022-12-11T01:02:53.312Z,97795.84
2022-12-11T01:05:20.789Z,97786.22
2022-12-11T01:07:48.246Z,97798.34
2022-12-11T01:10:24.773Z,97802.19
2022-12-11T01:12:54.460Z,97813.03
2022-12-11T01:15:24.587Z,97810.88
2022-12-11T01:17:52.594Z,97822.16
2022-12-11T01:20:21.922Z,97824.72
2022-12-11T01:22:53.679Z,97830.84
2022-12-11T01:25:21.392Z,97835.78
2022-12-11T01:27:51.884Z,97844.69
2022-12-11T01:30:21.249Z,97848.09
2022-12-11T01:32:49.027Z,97853.63
2022-12-11T01:35:17.555Z,97848.91
2022-12-11T01:37:45.692Z,97857.22
2022-12-11T01:40:19.577Z,97868.28
2022-12-11T01:42:47.797Z,97872.72
2022-12-11T01:45:30.513Z,97870.81
2022-12-11T01:48:06.531Z,97877.44
2022-12-11T01:50:39.764Z,97874.66
2022-12-11T01:53:10.366Z,97874.41
2022-12-11T01:55:40.032Z,97884.66
2022-12-11T01:58:08.579Z,97882.72
2022-12-11T02:00:36.201Z,97878.03
2022-12-11T02:03:03.672Z,97880.81
2022-12-11T02:05:31.168Z,97881.44
2022-12-11T02:08:02.330Z,97877.84
2022-12-11T02:11:01.424Z,97881.44
2022-12-11T02:13:36.361Z,97879.53
2022-12-11T02:16:21.826Z,97886.75
2022-12-11T02:19:00.543Z,97886.53
2022-12-11T02:21:43.129Z,97874.59
2022-12-11T02:24:35.055Z,97884.38
2022-12-11T02:27:05.196Z,97882.44
2022-12-11T02:29:39.627Z,97887.34
2022-12-11T02:32:13.617Z,97875.22
2022-12-11T02:34:49.379Z,97880.75
2022-12-11T02:37:20.602Z,97881.59
2022-12-11T02:39:51.370Z,97884.13
2022-12-11T02:42:20.605Z,97879.44
2022-12-11T02:44:49.956Z,97882.22
2022-12-11T02:47:19.977Z,97883.91
2022-12-11T02:49:49.912Z,97884.75
2022-12-11T02:52:21.866Z,97891.13
2022-12-11T02:54:52.754Z,97896.44
2022-12-11T02:57:30.123Z,97903.88
2022-12-11T02:59:57.581Z,97907.72
2022-12-11T03:02:25.105Z,97904.72
2022-12-11T03:04:53.041Z,97910.03
2022-12-11T03:07:28.622Z,97909.19
2022-12-11T03:09:56.045Z,97911.13
2022-12-11T03:12:32.716Z,97922.78
2022-12-11T03:15:03.542Z,97911.72
2022-12-11T03:18:15.769Z,97920.03
2022-12-11T03:21:20.212Z,97944.69
2022-12-11T03:24:10.522Z,97965.78
2022-12-11T03:26:43.872Z,97976.84
2022-12-11T03:29:21.223Z,98000.66
2022-12-11T03:32:03.920Z,98004.25
2022-12-11T03:34:38.659Z,98005.13
2022-12-11T03:37:08.876Z,98014.25
2022-12-11T03:39:41.057Z,98027.25
2022-12-11T03:42:12.064Z,98038.09
2022-12-11T03:44:40.420Z,98035.34
2022-12-11T03:47:10.138Z,98043.63
2022-12-11T03:49:42.119Z,98043.38
2022-12-11T03:52:12.536Z,98048.94
2022-12-11T03:54:43.113Z,98047.84
2022-12-11T03:57:15.756Z,98065.53
2022-12-11T03:59:43.355Z,98067.00
2022-12-11T04:02:11.149Z,98079.97
2022-12-11T04:04:39.730Z,98084.47
2022-12-11T04:07:08.283Z,98089.13
2022-12-11T04:09:36.317Z,98096.38
2022-12-11T04:12:03.829Z,98094.47
2022-12-11T04:14:50.232Z,98097.22
2022-12-11T04:17:37.617Z,98106.34
2022-12-11T04:20:24.989Z,98103.59
2022-12-11T04:23:10.882Z,98098.91
2022-12-11T04:25:38.281Z,98090.41
2022-12-11T04:28:05.723Z,98082.91
2022-12-11T04:30:34.486Z,98089.53
2022-12-11T04:33:02.371Z,98093.16
2022-12-11T04:35:29.798Z,98093.16
2022-12-11T04:37:57.366Z,98084.84
2022-12-11T04:40:25.315Z,98084.84
2022-12-11T04:42:52.861Z,98096.53
2022-12-11T04:45:20.312Z,98092.09
2022-12-11T04:47:47.909Z,98086.56
2022-12-11T04:50:16.158Z,98088.25
2022-12-11T04:52:43.947Z,98091.84
2022-12-11T04:55:12.582Z,98104.59
2022-12-11T04:57:40.216Z,98108.44
2022-12-11T05:00:11.435Z,98119.28
2022-12-11T05:02:40.506Z,98115.66
2022-12-11T05:05:11.241Z,98130.38
2022-12-11T05:07:40.048Z,98143.13
2022-12-11T05:10:08.295Z,98140.56
2022-12-11T05:12:35.727Z,98146.97
2022-12-11T05:15:03.597Z,98148.66
2022-12-11T05:17:31.082Z,98152.50
2022-12-11T05:19:58.466Z,98152.50
2022-12-11T05:22:25.931Z,98169.13
2022-12-11T05:24:53.404Z,98174.66
2022-12-11T05:27:21.003Z,98189.09
2022-12-11T05:29:48.470Z,98189.09
2022-12-11T05:32:16.029Z,98194.03
2022-12-11T05:34:43.484Z,98215.97
2022-12-11T05:37:10.916Z,98219.56
2022-12-11T05:39:38.486Z,98224.88
2022-12-11T05:42:05.937Z,98226.16
2022-12-11T05:44:33.831Z,98235.34
2022-12-11T05:47:01.294Z,98250.00
2022-12-11T05:49:31.039Z,98255.53
2022-12-11T05:51:58.739Z,98257.22
2022-12-11T05:54:26.141Z,98258.31
2022-12-11T05:56:53.553Z,98260.00
2022-12-11T05:59:21.052Z,98265.53
2022-12-11T06:01:48.631Z,98270.25
2022-12-11T06:04:16.156Z,98279.63
2022-12-11T06:06:46.674Z,98273.00
2022-12-11T06:09:15.668Z,98278.53
2022-12-11T06:11:43.485Z,98280.69
2022-12-11T06:14:12.079Z,98288.13
2022-12-11T06:16:39.742Z,98277.94
2022-12-11T06:19:07.448Z,98290.44
2022-12-11T06:21:34.895Z,98293.47
2022-12-11T06:24:05.683Z,98301.75
2022-12-11T06:26:33.303Z,98299.81
2022-12-11T06:29:00.706Z,98309.81
2022-12-11T06:31:28.226Z,98321.13
2022-12-11T06:33:55.962Z,98325.34
2022-12-11T06:36:24.505Z,98333.66
2022-12-11T06:38:52.853Z,98331.97
2022-12-11T06:41:20.401Z,98331.97
2022-12-11T06:43:47.836Z,98333.03
2022-12-11T06:46:18.438Z,98331.75
2022-12-11T06:48:46.635Z,98337.75
2022-12-11T06:51:17.166Z,98334.72
2022-12-11T06:53:45.375Z,98344.72
2022-12-11T06:56:15.754Z,98338.56
2022-12-11T06:58:43.946Z,98343.28
2022-12-11T07:01:23.596Z,98346.88
2022-12-11T07:03:54.366Z,98359.91
2022-12-11T07:06:22.285Z,98369.66
2022-12-11T07:08:49.732Z,98372.41
2022-12-11T07:11:19.340Z,98382.44
2022-12-11T07:13:47.128Z,98389.03
2022-12-11T07:16:16.297Z,98389.25
2022-12-11T07:18:48.001Z,98392.66
2022-12-11T07:21:15.837Z,98400.97
2022-12-11T07:23:43.417Z,98401.16
2022-12-11T07:26:13.420Z,98410.13
2022-12-11T07:28:41.745Z,98417.78
2022-12-11T07:31:12.055Z,98415.88
2022-12-11T07:33:40.396Z,98425.00
2022-12-11T07:36:09.484Z,98426.09
2022-12-11T07:38:37.419Z,98428.84
2022-12-11T07:41:07.328Z,98429.72
2022-12-11T07:43:35.599Z,98434.19
2022-12-11T07:46:05.526Z,98432.69
2022-12-11T07:48:36.547Z,98428.03
2022-12-11T07:51:17.360Z,98439.94
2022-12-11T07:53:46.710Z,98438.22
2022-12-11T07:56:15.751Z,98454.00
2022-12-11T07:58:43.517Z,98458.22
2022-12-11T08:01:22.463Z,98451.88
2022-12-11T08:03:50.908Z,98463.75
2022-12-11T08:06:21.481Z,98466.78
2022-12-11T08:08:49.084Z,98472.94
2022-12-11T08:11:16.524Z,98467.59
2022-12-11T08:13:44.414Z,98482.94
2022-12-11T08:16:14.400Z,98494.00
2022-12-11T08:18:43.452Z,98489.53
2022-12-11T08:21:18.758Z,98508.91
2022-12-11T08:23:46.638Z,98505.53
2022-12-11T08:26:16.503Z,98515.53
2022-12-11T08:28:44.715Z,98517.44
2022-12-11T08:31:13.918Z,98513.59
2022-12-11T08:33:41.955Z,98518.09
2022-12-11T08:36:12.711Z,98525.75
2022-12-11T08:38:40.717Z,98532.97
2022-12-11T08:41:12.656Z,98534.03
2022-12-11T08:43:40.608Z,98546.81
2022-12-11T08:46:09.117Z,98550.03
2022-12-11T08:48:38.713Z,98555.13
2022-12-11T08:51:09.285Z,98551.09
2022-12-11T08:53:36.950Z,98548.75
2022-12-11T08:56:09.738Z,98542.78
2022-12-11T08:58:37.907Z,98544.69
2022-12-11T09:01:12.771Z,98543.41
2022-12-11T09:03:41.337Z,98542.59
2022-12-11T09:06:11.730Z,98542.34
2022-12-11T09:08:39.396Z,98554.50
2022-12-11T09:11:09.243Z,98553.66
2022-12-11T09:13:37.643Z,98565.56
2022-12-11T09:16:07.450Z,98558.34
2022-12-11T09:18:36.208Z,98564.06
2022-12-11T09:21:06.961Z,98565.81
2022-12-11T09:23:34.522Z,98573.44
2022-12-11T09:26:11.080Z,98562.38
2022-12-11T09:28:44.309Z,98559.59
2022-12-11T09:31:19.749Z,98555.78
2022-12-11T09:33:47.609Z,98554.94
2022-12-11T09:36:15.103Z,98550.22
2022-12-11T09:38:45.638Z,98542.78
2022-12-11T09:41:36.280Z,98533.00
2022-12-11T09:44:30.182Z,98543.88
2022-12-11T09:46:59.013Z,98540.47
2022-12-11T09:49:42.531Z,98546.00
2022-12-11T09:52:31.858Z,98548.78
2022-12-11T09:55:02.383Z,98560.47
2022-12-11T09:57:40.126Z,98564.31
2022-12-11T10:00:16.591Z,98565.38
2022-12-11T10:03:11.535Z,98556.22
2022-12-11T10:06:06.959Z,98557.91
2022-12-11T10:08:49.059Z,98555.16
2022-12-11T10:11:55.902Z,98563.69
2022-12-11T10:14:35.909Z,98568.97
2022-12-11T10:17:34.055Z,98572.81
2022-12-11T10:20:24.485Z,98569.22
2022-12-11T10:22:54.372Z,98557.28
2022-12-11T10:25:44.896Z,98556.41
2022-12-11T10:28:14.674Z,98550.25
2022-12-11T10:30:57.756Z,98561.97
2022-12-11T10:33:37.159Z,98558.34
2022-12-11T10:36:08.002Z,98558.97
2022-12-11T10:38:42.923Z,98560.06
2022-12-11T10:41:40.636Z,98562.81
2022-12-11T10:44:22.764Z,98556.41
2022-12-11T10:47:06.005Z,98548.13
2022-12-11T10:49:35.314Z,98547.50
2022-12-11T10:52:11.892Z,98561.13
2022-12-11T10:54:47.074Z,98561.13
2022-12-11T10:57:15.807Z,98561.97
2022-12-11T10:59:43.244Z,98558.56
2022-12-11T11:02:32.337Z,98558.56
2022-12-11T11:05:10.655Z,98561.13
2022-12-11T11:07:38.334Z,98557.94
2022-12-11T11:10:05.879Z,98557.72
2022-12-11T11:12:47.759Z,98557.50
2022-12-11T11:15:25.762Z,98556.00
2022-12-11T11:18:00.813Z,98563.25
2022-12-11T11:20:31.051Z,98553.03
2022-12-11T11:23:05.038Z,98558.75
2022-12-11T11:25:33.724Z,98554.97
2022-12-11T11:28:06.989Z,98552.41
2022-12-11T11:30:37.308Z,98559.00
2022-12-11T11:33:12.821Z,98566.25
2022-12-11T11:35:45.709Z,98560.91
2022-12-11T11:38:18.793Z,98561.16
2022-12-11T11:40:53.374Z,98566.44
2022-12-11T11:43:36.976Z,98568.38
2022-12-11T11:46:40.535Z,98569.22
2022-12-11T11:49:23.012Z,98572.84
2022-12-11T11:52:03.854Z,98572.84
2022-12-11T11:54:35.652Z,98583.06
2022-12-11T11:57:13.794Z,98579.44
2022-12-11T12:00:09.923Z,98582.22
2022-12-11T12:02:41.668Z,98575.63
2022-12-11T12:05:13.803Z,98581.16
2022-12-11T12:07:51.467Z,98586.06
2022-12-11T12:10:27.033Z,98596.25
2022-12-11T12:13:48.742Z,98589.84
2022-12-11T12:16:52.082Z,98593.69
2022-12-11T12:19:51.367Z,98583.28
2022-12-11T12:22:51.452Z,98591.78
2022-12-11T12:25:40.848Z,98606.47
2022-12-11T12:28:36.296Z,98610.31
2022-12-11T12:31:18.520Z,98609.03
2022-12-11T12:33:54.220Z,98615.00
2022-12-11T12:36:37.625Z,98608.59
2022-12-11T12:39:35.433Z,98611.38
2022-12-11T12:42:07.703Z,98615.00
2022-12-11T12:44:46.811Z,98612.44
2022-12-11T12:47:18.465Z,98619.88
2022-12-11T12:49:48.538Z,98623.31
2022-12-11T12:52:21.378Z,98623.31
2022-12-11T12:55:12.965Z,98628.84
2022-12-11T12:57:45.061Z,98636.28
2022-12-11T13:00:13.714Z,98636.28
2022-12-11T13:02:51.767Z,98629.91
2022-12-11T13:05:28.853Z,98625.22
2022-12-11T13:08:02.529Z,98624.56
2022-12-11T13:10:38.264Z,98635.66
2022-12-11T13:13:25.465Z,98634.59
2022-12-11T13:15:53.341Z,98623.72
2022-12-11T13:18:39.461Z,98630.13
2022-12-11T13:21:30.838Z,98633.72
2022-12-11T13:24:28.076Z,98635.66
2022-12-11T13:26:55.952Z,98631.19
2022-12-11T13:29:30.593Z,98647.78
2022-12-11T13:32:01.375Z,98643.31
2022-12-11T13:34:33.717Z,98648.00
2022-12-11T13:37:02.930Z,98639.50
2022-12-11T13:39:35.057Z,98647.56
2022-12-11T13:42:11.873Z,98655.22
2022-12-11T13:44:43.223Z,98662.47
2022-12-11T13:47:17.196Z,98669.94
2022-12-11T13:49:48.994Z,98675.47
2022-12-11T13:52:22.476Z,98669.94
2022-12-11T13:54:53.002Z,98679.31
2022-12-11T13:57:23.224Z,98672.06
2022-12-11T13:59:53.390Z,98681.19
2022-12-11T14:02:31.960Z,98683.13
2022-12-11T14:05:10.048Z,98683.13
2022-12-11T14:07:49.924Z,98695.03
2022-12-11T14:10:24.761Z,98689.69
2022-12-11T14:13:03.445Z,98691.63
2022-12-11T14:15:33.041Z,98703.78
2022-12-11T14:18:01.007Z,98713.78
2022-12-11T14:20:31.696Z,98709.31
2022-12-11T14:23:15.269Z,98706.31
2022-12-11T14:25:42.720Z,98719.31
2022-12-11T14:28:17.402Z,98719.94
2022-12-11T14:30:50.729Z,98712.91
2022-12-11T14:33:22.000Z,98723.16
2022-12-11T14:35:52.529Z,98719.31
2022-12-11T14:38:29.168Z,98727.81
2022-12-11T14:41:02.816Z,98730.78
2022-12-11T14:43:36.537Z,98739.75
2022-12-11T14:46:09.403Z,98738.03
2022-12-11T14:48:45.189Z,98735.28
2022-12-11T14:51:16.368Z,98744.41
2022-12-11T14:53:49.356Z,98731.66
2022-12-11T14:56:22.320Z,98737.38
2022-12-11T14:59:06.209Z,98739.09
2022-12-11T15:01:36.561Z,98737.19
2022-12-11T15:04:06.711Z,98726.53
2022-12-11T15:06:42.797Z,98732.91
2022-12-11T15:09:20.527Z,98733.78
2022-12-11T15:11:50.862Z,98737.63
2022-12-11T15:14:20.844Z,98731.22
2022-12-11T15:16:49.774Z,98729.31
2022-12-11T15:19:47.669Z,98735.91
2022-12-11T15:22:16.957Z,98731.22
2022-12-11T15:24:48.604Z,98732.28
2022-12-11T15:27:30.107Z,98737.81
2022-12-11T15:29:57.685Z,98749.75
2022-12-11T15:32:25.644Z,98757.81
2022-12-11T15:34:54.752Z,98761.66
2022-12-11T15:37:31.693Z,98751.44
2022-12-11T15:40:00.083Z,98763.34
2022-12-11T15:42:45.391Z,98764.41
2022-12-11T15:45:18.053Z,98765.47
2022-12-11T15:47:46.294Z,98764.63
2022-12-11T15:50:21.693Z,98764.63
2022-12-11T15:52:51.138Z,98769.13
2022-12-11T15:55:20.045Z,98771.03
2022-12-11T15:57:56.836Z,98785.91
2022-12-11T16:00:25.140Z,98783.16
2022-12-11T16:02:52.663Z,98784.22
2022-12-11T16:05:20.735Z,98793.16
2022-12-11T16:07:49.195Z,98790.59
2022-12-11T16:10:18.725Z,98785.91
2022-12-11T16:12:46.543Z,98778.69
2022-12-11T16:15:21.459Z,98772.28
2022-12-11T16:17:50.836Z,98766.91
2022-12-11T16:20:18.451Z,98766.91
2022-12-11T16:22:45.966Z,98766.75
2022-12-11T16:25:13.640Z,98773.16
2022-12-11T16:27:41.326Z,98775.91
2022-12-11T16:30:10.740Z,98769.31
2022-12-11T16:32:38.256Z,98768.44
2022-12-11T16:35:07.272Z,98768.69
2022-12-11T16:37:34.853Z,98761.22
2022-12-11T16:40:02.348Z,98767.38
2022-12-11T16:42:30.163Z,98759.31
2022-12-11T16:45:12.585Z,98763.97
2022-12-11T16:47:40.264Z,98767.63
2022-12-11T16:50:08.669Z,98771.03
2022-12-11T16:52:36.393Z,98778.44
2022-12-11T16:55:04.523Z,98786.34
2022-12-11T16:57:32.089Z,98781.22
2022-12-11T16:59:59.520Z,98775.91
2022-12-11T17:02:27.055Z,98780.97
2022-12-11T17:04:54.514Z,98786.28
2022-12-11T17:07:22.121Z,98780.13
2022-12-11T17:09:50.010Z,98780.97
2022-12-11T17:12:17.941Z,98778.22
2022-12-11T17:14:45.927Z,98793.13
2022-12-11T17:17:13.753Z,98790.53
2022-12-11T17:19:41.335Z,98797.16
2022-12-11T17:22:09.002Z,98794.56
2022-12-11T17:24:36.447Z,98792.69
2022-12-11T17:27:03.985Z,98795.44
2022-12-11T17:29:31.752Z,98799.28
2022-12-11T17:31:59.561Z,98804.38
2022-12-11T17:34:27.039Z,98801.81
2022-12-11T17:36:54.502Z,98811.16
2022-12-11T17:39:22.343Z,98810.34
2022-12-11T17:41:49.871Z,98818.41
2022-12-11T17:44:17.317Z,98825.66
2022-12-11T17:46:44.934Z,98820.97
2022-12-11T17:49:12.411Z,98830.34
2022-12-11T17:51:39.875Z,98828.22
2022-12-11T17:54:07.344Z,98827.56
2022-12-11T17:56:36.253Z,98830.97
2022-12-11T17:59:04.648Z,98827.38
2022-12-11T18:01:32.759Z,98832.91
2022-12-11T18:04:01.910Z,98842.03
2022-12-11T18:06:30.146Z,98841.22
2022-12-11T18:08:57.875Z,98836.50
2022-12-11T18:11:25.631Z,98832.91
2022-12-11T18:13:53.781Z,98839.28
2022-12-11T18:16:26.212Z,98847.59
2022-12-11T18:18:54.683Z,98840.97
2022-12-11T18:21:26.158Z,98845.69
2022-12-11T18:23:54.709Z,98853.75
2022-12-11T18:26:23.379Z,98858.44
2022-12-11T18:28:51.963Z,98848.03
2022-12-11T18:31:20.879Z,98855.69
2022-12-11T18:33:48.733Z,98861.22
2022-12-11T18:36:18.116Z,98861.22
2022-12-11T18:38:47.110Z,98857.81
2022-12-11T18:41:16.565Z,98867.81
2022-12-11T18:43:44.606Z,98863.34
2022-12-11T18:46:14.758Z,98863.13
2022-12-11T18:48:43.673Z,98861.41
2022-12-11T18:51:14.798Z,98867.16
2022-12-11T18:53:42.237Z,98873.75
2022-12-11T18:56:15.698Z,98878.22
2022-12-11T18:58:43.261Z,98878.22
2022-12-11T19:01:23.131Z,98870.78
2022-12-11T19:03:55.347Z,98872.69
2022-12-11T19:06:28.694Z,98884.63
2022-12-11T19:08:57.108Z,98889.09
2022-12-11T19:11:26.869Z,98888.25
2022-12-11T19:13:58.493Z,98879.28
2022-12-11T19:16:33.601Z,98885.88
2022-12-11T19:19:11.515Z,98887.56
2022-12-11T19:21:39.458Z,98884.16
2022-12-11T19:24:08.981Z,98882.91
2022-12-11T19:26:37.033Z,98889.28
2022-12-11T19:29:04.697Z,98885.88
2022-12-11T19:31:33.401Z,98889.69
2022-12-11T19:34:01.698Z,98895.03
2022-12-11T19:36:30.953Z,98892.28
2022-12-11T19:39:01.909Z,98891.63
2022-12-11T19:41:30.881Z,98901.63
2022-12-11T19:43:59.413Z,98899.72
2022-12-11T19:46:28.160Z,98898.88
2022-12-11T19:48:57.226Z,98903.53
2022-12-11T19:51:31.452Z,98909.06
2022-12-11T19:53:59.441Z,98912.03
2022-12-11T19:56:26.854Z,98920.13
2022-12-11T19:58:54.285Z,98912.91
2022-12-11T20:01:28.928Z,98913.75
2022-12-11T20:04:06.107Z,98913.75
2022-12-11T20:06:36.198Z,98915.66
2022-12-11T20:09:05.739Z,98915.66
2022-12-11T20:11:33.801Z,98912.91
2022-12-11T20:14:01.236Z,98921.00
2022-12-11T20:16:53.702Z,98920.31
2022-12-11T20:19:15.979Z,98921.84
2022-12-11T20:21:43.358Z,98922.25
2022-12-11T20:24:11.295Z,98922.91
2022-12-11T20:26:39.100Z,98928.44
2022-12-11T20:29:08.352Z,98925.47
2022-12-11T20:31:36.855Z,98935.03
2022-12-11T20:34:05.929Z,98933.31
2022-12-11T20:36:33.920Z,98941.63
2022-12-11T20:39:01.581Z,98933.31
2022-12-11T20:41:29.391Z,98939.69
2022-12-11T20:43:56.933Z,98939.69
2022-12-11T20:46:25.656Z,98942.47
2022-12-11T20:48:55.582Z,98945.03
2022-12-11T20:51:26.233Z,98941.19
2022-12-11T20:53:58.908Z,98947.81
2022-12-11T20:56:29.922Z,98952.13
2022-12-11T20:58:59.411Z,98960.25
2022-12-11T21:01:29.496Z,98958.97
2022-12-11T21:03:57.901Z,98961.06
2022-12-11T21:06:33.717Z,98963.66
2022-12-11T21:09:07.527Z,98966.41
2022-12-11T21:11:35.397Z,98969.00
2022-12-11T21:14:03.726Z,98966.22
2022-12-11T21:16:32.008Z,98978.13
2022-12-11T21:18:59.656Z,98979.44
2022-12-11T21:21:27.219Z,98980.69
2022-12-11T21:23:54.822Z,98969.81
2022-12-11T21:26:22.421Z,98970.88
2022-12-11T21:28:50.077Z,98985.38
2022-12-11T21:31:18.987Z,98975.16
2022-12-11T21:33:46.896Z,98971.97
2022-12-11T21:36:15.281Z,98976.69
2022-12-11T21:38:43.885Z,98985.16
2022-12-11T21:41:14.435Z,98990.31
2022-12-11T21:44:14.680Z,98988.81
2022-12-11T21:46:31.380Z,98997.09
2022-12-11T21:49:00.201Z,98990.72
2022-12-11T21:51:35.978Z,98996.69
2022-12-11T21:54:06.688Z,99006.91
2022-12-11T21:56:34.308Z,99000.06
2022-12-11T21:59:02.050Z,99001.59
2022-12-11T22:01:34.293Z,99000.06
2022-12-11T22:04:02.458Z,98999.44
2022-12-11T22:06:29.874Z,98995.19
2022-12-11T22:08:57.420Z,98989.66
2022-12-11T22:11:28.798Z,99002.66
2022-12-11T22:13:56.725Z,99010.28
2022-12-11T22:16:24.761Z,99005.81
2022-12-11T22:18:53.368Z,98996.66
2022-12-11T22:21:21.059Z,99010.06
2022-12-11T22:23:48.592Z,99003.47
2022-12-11T22:26:19.253Z,98992.63
2022-12-11T22:28:47.001Z,98995.19
2022-12-11T22:31:17.368Z,98992.41
2022-12-11T22:33:44.965Z,98997.75
2022-12-11T22:36:12.581Z,99003.28
2022-12-11T22:38:40.141Z,99003.72
2022-12-11T22:41:16.279Z,99012.66
2022-12-11T22:43:46.453Z,99010.94
2022-12-11T22:46:15.674Z,99004.34
2022-12-11T22:48:43.172Z,99010.72
2022-12-11T22:51:11.364Z,99010.53
2022-12-11T22:53:39.074Z,99022.25
2022-12-11T22:56:08.113Z,99018.63
2022-12-11T22:58:35.734Z,99021.19
2022-12-11T23:01:07.627Z,99027.59
2022-12-11T23:03:35.093Z,99037.41
2022-12-11T23:06:06.880Z,99037.59
2022-12-11T23:08:35.203Z,99034.19
2022-12-11T23:11:09.746Z,99033.31
2022-12-11T23:13:37.172Z,99022.91
2022-12-11T23:16:05.024Z,99012.69
2022-12-11T23:18:32.938Z,99021.41
2022-12-11T23:21:00.584Z,99021.41
2022-12-11T23:23:28.670Z,99024.63
2022-12-11T23:25:56.876Z,99028.22
2022-12-11T23:28:24.420Z,99035.69
2022-12-11T23:30:51.910Z,99039.53
2022-12-11T23:33:19.398Z,99051.63
2022-12-11T23:35:46.863Z,99059.34
2022-12-11T23:38:14.533Z,99056.78
2022-12-11T23:40:42.118Z,99047.59
2022-12-11T23:43:09.555Z,99049.91
2022-12-11T23:45:37.021Z,99046.94
2022-12-11T23:48:04.539Z,99049.72
2022-12-11T23:50:33.000Z,99049.31
2022-12-11T23:53:00.633Z,99058.47
2022-12-11T23:55:28.651Z,99062.31
2022-12-11T23:57:56.425Z,99066.78
